sensor_id;sensor_type;location;lat;lon;timestamp;pressure;altitude;pressure_sealevel;temperature;humidity
41234;BME280;26968;42.686;23.352;2023-12-14T00:01:38;94222.13;;;5.63;78.33
41234;BME280;26968;42.686;23.352;2023-12-14T00:04:05;94231.34;;;5.40;79.12
41234;BME280;26968;42.686;23.352;2023-12-14T00:06:31;94222.13;;;5.43;79.10
41234;BME280;26968;42.686;23.352;2023-12-14T00:08:56;94184.28;;;5.03;79.79
41234;BME280;26968;42.686;23.352;2023-12-14T00:11:22;94222.94;;;5.18;80.31
41234;BME280;26968;42.686;23.352;2023-12-14T00:13:47;94208.97;;;5.43;79.71
41234;BME280;26968;42.686;23.352;2023-12-14T00:16:13;94218.44;;;5.54;79.32
41234;BME280;26968;42.686;23.352;2023-12-14T00:18:38;94191.66;;;5.01;80.06
41234;BME280;26968;42.686;23.352;2023-12-14T00:21:04;94139.88;;;4.77;79.86
41234;BME280;26968;42.686;23.352;2023-12-14T00:23:30;94149.09;;;4.84;79.37
41234;BME280;26968;42.686;23.352;2023-12-14T00:25:56;94204.25;;;5.15;79.74
41234;BME280;26968;42.686;23.352;2023-12-14T00:28:21;94173.25;;;4.91;79.49
41234;BME280;26968;42.686;23.352;2023-12-14T00:30:48;94177.72;;;5.11;79.83
41234;BME280;26968;42.686;23.352;2023-12-14T00:33:13;94235.25;;;5.58;79.58
41234;BME280;26968;42.686;23.352;2023-12-14T00:35:39;94228.16;;;5.59;79.24
41234;BME280;26968;42.686;23.352;2023-12-14T00:38:04;94171.66;;;5.21;78.80
41234;BME280;26968;42.686;23.352;2023-12-14T00:40:30;94241.34;;;5.49;79.14
41234;BME280;26968;42.686;23.352;2023-12-14T00:42:55;94212.41;;;5.49;78.88
41234;BME280;26968;42.686;23.352;2023-12-14T00:45:21;94238.19;;;5.57;78.71
41234;BME280;26968;42.686;23.352;2023-12-14T00:47:46;94212.94;;;5.56;78.35
41234;BME280;26968;42.686;23.352;2023-12-14T00:50:12;94133.31;;;4.84;78.59
41234;BME280;26968;42.686;23.352;2023-12-14T00:52:37;94147.50;;;5.03;78.68
41234;BME280;26968;42.686;23.352;2023-12-14T00:55:03;94219.25;;;5.39;78.38
41234;BME280;26968;42.686;23.352;2023-12-14T00:57:29;94236.06;;;5.43;78.75
41234;BME280;26968;42.686;23.352;2023-12-14T00:59:54;94124.38;;;4.60;79.76
41234;BME280;26968;42.686;23.352;2023-12-14T01:02:20;94180.09;;;4.92;79.66
41234;BME280;26968;42.686;23.352;2023-12-14T01:04:46;94248.19;;;5.39;79.83
41234;BME280;26968;42.686;23.352;2023-12-14T01:07:12;94198.75;;;5.21;79.20
41234;BME280;26968;42.686;23.352;2023-12-14T01:09:37;94256.06;;;5.55;79.48
41234;BME280;26968;42.686;23.352;2023-12-14T01:12:03;94217.41;;;5.30;79.65
41234;BME280;26968;42.686;23.352;2023-12-14T01:14:28;94248.41;;;5.58;79.35
41234;BME280;26968;42.686;23.352;2023-12-14T01:16:54;94172.75;;;4.94;79.66
41234;BME280;26968;42.686;23.352;2023-12-14T01:19:19;94145.41;;;4.85;79.65
41234;BME280;26968;42.686;23.352;2023-12-14T01:21:45;94243.94;;;5.59;79.50
41234;BME280;26968;42.686;23.352;2023-12-14T01:24:10;94221.34;;;5.12;79.53
41234;BME280;26968;42.686;23.352;2023-12-14T01:26:36;94252.09;;;5.37;79.03
41234;BME280;26968;42.686;23.352;2023-12-14T01:29:02;94215.31;;;5.17;79.64
41234;BME280;26968;42.686;23.352;2023-12-14T01:31:27;94142.50;;;4.66;80.09
41234;BME280;26968;42.686;23.352;2023-12-14T01:33:53;94218.22;;;5.25;79.97
41234;BME280;26968;42.686;23.352;2023-12-14T01:36:25;94205.28;;;4.88;80.85
41234;BME280;26968;42.686;23.352;2023-12-14T01:38:51;94225.28;;;5.20;80.80
41234;BME280;26968;42.686;23.352;2023-12-14T01:41:17;94231.88;;;5.17;80.35
41234;BME280;26968;42.686;23.352;2023-12-14T01:43:44;94230.28;;;5.21;80.29
41234;BME280;26968;42.686;23.352;2023-12-14T01:46:10;94165.09;;;4.83;80.34
41234;BME280;26968;42.686;23.352;2023-12-14T01:48:35;94192.44;;;5.07;79.62
41234;BME280;26968;42.686;23.352;2023-12-14T01:51:01;94222.91;;;5.28;79.67
41234;BME280;26968;42.686;23.352;2023-12-14T01:53:27;94224.25;;;5.31;79.95
41234;BME280;26968;42.686;23.352;2023-12-14T01:55:53;94205.34;;;5.19;79.40
41234;BME280;26968;42.686;23.352;2023-12-14T01:58:18;94204.00;;;5.16;79.14
41234;BME280;26968;42.686;23.352;2023-12-14T02:03:21;94214.25;;;5.23;80.51
41234;BME280;26968;42.686;23.352;2023-12-14T02:05:47;94155.13;;;4.85;80.38
41234;BME280;26968;42.686;23.352;2023-12-14T02:08:12;94238.69;;;5.08;80.07
41234;BME280;26968;42.686;23.352;2023-12-14T02:10:38;94212.94;;;5.05;81.40
41234;BME280;26968;42.686;23.352;2023-12-14T02:13:03;94146.41;;;4.59;80.90
41234;BME280;26968;42.686;23.352;2023-12-14T02:15:29;94118.56;;;4.33;81.29
41234;BME280;26968;42.686;23.352;2023-12-14T02:17:55;94128.31;;;4.62;80.88
41234;BME280;26968;42.686;23.352;2023-12-14T02:20:21;94139.59;;;4.58;81.04
41234;BME280;26968;42.686;23.352;2023-12-14T02:22:55;94220.84;;;5.10;81.86
41234;BME280;26968;42.686;23.352;2023-12-14T02:25:22;94201.13;;;5.23;80.87
41234;BME280;26968;42.686;23.352;2023-12-14T02:27:49;94175.09;;;5.01;80.86
41234;BME280;26968;42.686;23.352;2023-12-14T02:30:17;94208.19;;;5.12;81.11
41234;BME280;26968;42.686;23.352;2023-12-14T02:32:43;94184.84;;;5.11;81.14
41234;BME280;26968;42.686;23.352;2023-12-14T02:35:09;94159.84;;;4.78;81.22
41234;BME280;26968;42.686;23.352;2023-12-14T02:37:35;94110.19;;;4.61;81.87
41234;BME280;26968;42.686;23.352;2023-12-14T02:40:08;94206.63;;;5.06;81.79
41234;BME280;26968;42.686;23.352;2023-12-14T02:42:33;94191.38;;;4.93;82.14
41234;BME280;26968;42.686;23.352;2023-12-14T02:44:59;94213.72;;;5.00;81.78
41234;BME280;26968;42.686;23.352;2023-12-14T02:47:27;94179.81;;;4.89;81.54
41234;BME280;26968;42.686;23.352;2023-12-14T02:49:52;94205.31;;;5.14;82.15
41234;BME280;26968;42.686;23.352;2023-12-14T02:52:18;94155.09;;;4.59;81.58
41234;BME280;26968;42.686;23.352;2023-12-14T02:54:43;94157.50;;;4.71;81.69
41234;BME280;26968;42.686;23.352;2023-12-14T02:57:09;94215.81;;;4.83;82.53
41234;BME280;26968;42.686;23.352;2023-12-14T02:59:34;94190.03;;;4.70;82.91
41234;BME280;26968;42.686;23.352;2023-12-14T03:02:00;94208.72;;;4.89;82.70
41234;BME280;26968;42.686;23.352;2023-12-14T03:04:25;94246.56;;;4.88;83.29
41234;BME280;26968;42.686;23.352;2023-12-14T03:06:51;94195.56;;;4.69;83.27
41234;BME280;26968;42.686;23.352;2023-12-14T03:09:16;94200.84;;;4.79;83.64
41234;BME280;26968;42.686;23.352;2023-12-14T03:11:44;94206.38;;;5.08;83.05
41234;BME280;26968;42.686;23.352;2023-12-14T03:14:09;94190.34;;;5.09;81.97
41234;BME280;26968;42.686;23.352;2023-12-14T03:16:35;94195.59;;;5.24;82.21
41234;BME280;26968;42.686;23.352;2023-12-14T03:19:01;94187.69;;;5.29;81.12
41234;BME280;26968;42.686;23.352;2023-12-14T03:21:27;94151.97;;;4.98;81.20
41234;BME280;26968;42.686;23.352;2023-12-14T03:23:52;94200.59;;;5.31;81.08
41234;BME280;26968;42.686;23.352;2023-12-14T03:26:18;94173.50;;;5.15;81.14
41234;BME280;26968;42.686;23.352;2023-12-14T03:28:43;94148.56;;;5.08;80.73
41234;BME280;26968;42.686;23.352;2023-12-14T03:31:13;94192.44;;;5.17;81.12
41234;BME280;26968;42.686;23.352;2023-12-14T03:33:39;94128.06;;;4.94;81.38
41234;BME280;26968;42.686;23.352;2023-12-14T03:36:05;94106.53;;;4.62;81.13
41234;BME280;26968;42.686;23.352;2023-12-14T03:38:31;94187.97;;;5.23;81.62
41234;BME280;26968;42.686;23.352;2023-12-14T03:40:57;94156.69;;;5.06;81.64
41234;BME280;26968;42.686;23.352;2023-12-14T03:43:23;94151.16;;;5.13;81.71
41234;BME280;26968;42.686;23.352;2023-12-14T03:45:48;94154.06;;;4.96;81.30
41234;BME280;26968;42.686;23.352;2023-12-14T03:48:14;94047.69;;;4.43;80.84
41234;BME280;26968;42.686;23.352;2023-12-14T03:50:39;94161.94;;;5.21;81.68
41234;BME280;26968;42.686;23.352;2023-12-14T03:53:06;94158.03;;;5.19;81.37
41234;BME280;26968;42.686;23.352;2023-12-14T03:55:32;94120.44;;;5.03;80.91
41234;BME280;26968;42.686;23.352;2023-12-14T03:57:58;94068.16;;;4.51;81.26
41234;BME280;26968;42.686;23.352;2023-12-14T04:00:23;94110.19;;;4.66;81.87
41234;BME280;26968;42.686;23.352;2023-12-14T04:02:49;94113.88;;;4.95;81.66
41234;BME280;26968;42.686;23.352;2023-12-14T04:05:14;94130.94;;;4.98;81.47
41234;BME280;26968;42.686;23.352;2023-12-14T04:07:40;94090.25;;;4.70;81.35
41234;BME280;26968;42.686;23.352;2023-12-14T04:10:09;94089.19;;;4.61;81.82
41234;BME280;26968;42.686;23.352;2023-12-14T04:12:35;94179.81;;;5.14;nan
41234;BME280;26968;42.686;23.352;2023-12-14T04:15:02;94182.97;;;5.06;81.70
41234;BME280;26968;42.686;23.352;2023-12-14T04:17:28;94144.59;;;4.90;81.64
41234;BME280;26968;42.686;23.352;2023-12-14T04:19:53;94156.44;;;5.08;81.93
41234;BME280;26968;42.686;23.352;2023-12-14T04:22:19;94158.03;;;4.93;81.79
41234;BME280;26968;42.686;23.352;2023-12-14T04:24:44;94170.09;;;5.04;82.39
41234;BME280;26968;42.686;23.352;2023-12-14T04:27:10;94144.09;;;4.78;82.87
41234;BME280;26968;42.686;23.352;2023-12-14T04:29:35;94145.94;;;4.72;82.75
41234;BME280;26968;42.686;23.352;2023-12-14T04:32:01;94175.09;;;5.06;82.19
41234;BME280;26968;42.686;23.352;2023-12-14T04:34:26;94135.16;;;4.94;82.72
41234;BME280;26968;42.686;23.352;2023-12-14T04:36:52;94155.38;;;5.14;82.54
41234;BME280;26968;42.686;23.352;2023-12-14T04:39:22;94157.75;;;5.00;82.70
41234;BME280;26968;42.686;23.352;2023-12-14T04:41:48;94177.47;;;4.92;82.30
41234;BME280;26968;42.686;23.352;2023-12-14T04:44:13;94160.38;;;4.90;81.92
41234;BME280;26968;42.686;23.352;2023-12-14T04:46:39;94163.28;;;4.98;82.86
41234;BME280;26968;42.686;23.352;2023-12-14T04:49:04;94187.19;;;4.92;83.14
41234;BME280;26968;42.686;23.352;2023-12-14T04:51:30;94113.09;;;4.54;83.69
41234;BME280;26968;42.686;23.352;2023-12-14T04:53:57;94138.28;;;4.60;83.45
41234;BME280;26968;42.686;23.352;2023-12-14T04:56:22;94137.00;;;4.78;82.96
41234;BME280;26968;42.686;23.352;2023-12-14T04:58:48;94147.75;;;4.66;83.14
41234;BME280;26968;42.686;23.352;2023-12-14T05:01:13;94119.63;;;4.52;83.17
41234;BME280;26968;42.686;23.352;2023-12-14T05:03:39;94184.53;;;4.97;83.59
41234;BME280;26968;42.686;23.352;2023-12-14T05:06:05;94186.91;;;4.88;83.39
41234;BME280;26968;42.686;23.352;2023-12-14T05:08:32;94098.88;;;4.45;83.38
41234;BME280;26968;42.686;23.352;2023-12-14T05:10:57;94157.75;;;4.75;83.66
41234;BME280;26968;42.686;23.352;2023-12-14T05:13:23;94078.16;;;4.44;83.47
41234;BME280;26968;42.686;23.352;2023-12-14T05:15:48;94192.16;;;4.98;83.24
41234;BME280;26968;42.686;23.352;2023-12-14T05:18:14;94166.94;;;4.77;83.36
41234;BME280;26968;42.686;23.352;2023-12-14T05:20:39;94106.22;;;4.38;84.66
41234;BME280;26968;42.686;23.352;2023-12-14T05:23:05;94134.09;;;4.54;84.47
41234;BME280;26968;42.686;23.352;2023-12-14T05:25:31;94169.06;;;4.85;83.95
41234;BME280;26968;42.686;23.352;2023-12-14T05:27:56;94110.69;;;4.43;84.00
41234;BME280;26968;42.686;23.352;2023-12-14T05:30:22;94120.44;;;4.47;84.39
41234;BME280;26968;42.686;23.352;2023-12-14T05:32:47;94196.91;;;5.01;83.75
41234;BME280;26968;42.686;23.352;2023-12-14T05:35:13;94139.09;;;4.76;83.71
41234;BME280;26968;42.686;23.352;2023-12-14T05:37:39;94177.19;;;4.94;84.03
41234;BME280;26968;42.686;23.352;2023-12-14T05:40:05;94186.38;;;4.71;84.66
41234;BME280;26968;42.686;23.352;2023-12-14T05:42:31;94201.63;;;4.94;84.37
41234;BME280;26968;42.686;23.352;2023-12-14T05:44:58;94199.53;;;4.91;83.85
41234;BME280;26968;42.686;23.352;2023-12-14T05:47:26;94173.00;;;4.88;84.07
41234;BME280;26968;42.686;23.352;2023-12-14T05:49:51;94174.53;;;4.74;83.98
41234;BME280;26968;42.686;23.352;2023-12-14T05:52:17;94187.69;;;4.69;83.58
41234;BME280;26968;42.686;23.352;2023-12-14T05:54:43;94147.22;;;4.59;84.05
41234;BME280;26968;42.686;23.352;2023-12-14T05:57:08;94161.38;;;4.58;84.13
41234;BME280;26968;42.686;23.352;2023-12-14T05:59:34;93951.75;;;3.24;84.99
41234;BME280;26968;42.686;23.352;2023-12-14T06:02:00;94204.47;;;4.62;85.16
41234;BME280;26968;42.686;23.352;2023-12-14T06:04:27;94039.97;;;3.65;84.78
41234;BME280;26968;42.686;23.352;2023-12-14T06:06:53;94190.31;;;4.89;85.20
41234;BME280;26968;42.686;23.352;2023-12-14T06:09:19;94004.56;;;3.58;84.84
41234;BME280;26968;42.686;23.352;2023-12-14T06:11:47;94003.53;;;3.74;84.29
41234;BME280;26968;42.686;23.352;2023-12-14T06:14:13;94040.31;;;3.99;84.03
41234;BME280;26968;42.686;23.352;2023-12-14T06:16:39;93832.44;;;2.70;83.42
41234;BME280;26968;42.686;23.352;2023-12-14T06:19:04;94211.09;;;5.21;83.27
41234;BME280;26968;42.686;23.352;2023-12-14T06:21:30;93835.06;;;2.70;82.46
41234;BME280;26968;42.686;23.352;2023-12-14T06:23:56;93929.31;;;3.63;82.58
41234;BME280;26968;42.686;23.352;2023-12-14T06:26:24;93848.69;;;2.78;82.18
41234;BME280;26968;42.686;23.352;2023-12-14T06:28:50;94093.13;;;4.38;81.75
41234;BME280;26968;42.686;23.352;2023-12-14T06:31:16;94088.41;;;4.60;81.95
41234;BME280;26968;42.686;23.352;2023-12-14T06:33:43;94064.53;;;4.57;81.81
41234;BME280;26968;42.686;23.352;2023-12-14T06:36:08;94249.75;;;5.61;81.93
41234;BME280;26968;42.686;23.352;2023-12-14T06:38:34;94241.34;;;5.49;82.36
41234;BME280;26968;42.686;23.352;2023-12-14T06:41:00;94163.00;;;5.20;82.44
41234;BME280;26968;42.686;23.352;2023-12-14T06:43:29;94226.38;;;5.34;82.45
41234;BME280;26968;42.686;23.352;2023-12-14T06:45:55;94149.34;;;5.03;81.61
41234;BME280;26968;42.686;23.352;2023-12-14T06:48:20;94235.78;;;5.65;81.95
41234;BME280;26968;42.686;23.352;2023-12-14T06:50:46;94190.03;;;5.51;81.31
41234;BME280;26968;42.686;23.352;2023-12-14T06:53:14;94218.66;;;5.73;81.27
41234;BME280;26968;42.686;23.352;2023-12-14T06:55:41;94195.81;;;5.58;80.23
41234;BME280;26968;42.686;23.352;2023-12-14T06:58:08;94148.78;;;5.41;80.35
41234;BME280;26968;42.686;23.352;2023-12-14T07:00:40;94192.88;;;5.85;80.51
41234;BME280;26968;42.686;23.352;2023-12-14T07:03:05;94150.63;;;5.36;79.85
41234;BME280;26968;42.686;23.352;2023-12-14T07:05:31;94100.72;;;5.16;80.05
41234;BME280;26968;42.686;23.352;2023-12-14T07:07:58;94256.75;;;6.21;80.18
41234;BME280;26968;42.686;23.352;2023-12-14T07:10:24;94000.47;;;4.33;80.18
41234;BME280;26968;42.686;23.352;2023-12-14T07:12:50;94121.19;;;5.29;80.39
41234;BME280;26968;42.686;23.352;2023-12-14T07:15:15;94184.44;;;5.83;80.26
41234;BME280;26968;42.686;23.352;2023-12-14T07:17:44;94150.13;;;5.34;79.41
41234;BME280;26968;42.686;23.352;2023-12-14T07:20:10;94002.81;;;4.49;78.99
41234;BME280;26968;42.686;23.352;2023-12-14T07:22:36;93968.16;;;4.37;78.66
41234;BME280;26968;42.686;23.352;2023-12-14T07:25:03;93962.91;;;4.32;78.17
41234;BME280;26968;42.686;23.352;2023-12-14T07:27:29;94170.78;;;5.76;78.03
41234;BME280;26968;42.686;23.352;2023-12-14T07:29:55;94209.63;;;6.19;78.26
41234;BME280;26968;42.686;23.352;2023-12-14T07:32:21;94289.16;;;6.81;77.98
41234;BME280;26968;42.686;23.352;2023-12-14T07:34:47;94115.50;;;5.81;77.26
41234;BME280;26968;42.686;23.352;2023-12-14T07:37:13;94265.41;;;6.91;76.63
41234;BME280;26968;42.686;23.352;2023-12-14T07:39:38;94275.66;;;6.97;76.42
41234;BME280;26968;42.686;23.352;2023-12-14T07:42:04;94292.50;;;7.02;76.77
41234;BME280;26968;42.686;23.352;2023-12-14T07:44:31;94196.09;;;6.41;76.88
41234;BME280;26968;42.686;23.352;2023-12-14T07:46:59;94227.06;;;6.70;76.74
41234;BME280;26968;42.686;23.352;2023-12-14T07:49:25;94074.25;;;5.76;76.05
41234;BME280;26968;42.686;23.352;2023-12-14T07:51:51;93730.84;;;3.59;75.86
41234;BME280;26968;42.686;23.352;2023-12-14T07:54:17;93736.09;;;3.64;75.13
41234;BME280;26968;42.686;23.352;2023-12-14T07:56:44;93647.81;;;3.29;74.93
41234;BME280;26968;42.686;23.352;2023-12-14T07:59:10;94309.00;;;7.61;75.08
41234;BME280;26968;42.686;23.352;2023-12-14T08:01:36;94169.31;;;6.73;75.29
41234;BME280;26968;42.686;23.352;2023-12-14T08:04:02;94301.56;;;7.68;74.86
41234;BME280;26968;42.686;23.352;2023-12-14T08:06:29;94118.56;;;6.63;74.41
41234;BME280;26968;42.686;23.352;2023-12-14T08:08:57;94155.03;;;6.79;74.09
41234;BME280;26968;42.686;23.352;2023-12-14T08:11:24;94230.56;;;7.33;74.18
41234;BME280;26968;42.686;23.352;2023-12-14T08:13:50;94153.97;;;6.85;74.36
41234;BME280;26968;42.686;23.352;2023-12-14T08:16:18;94296.03;;;7.94;73.87
41234;BME280;26968;42.686;23.352;2023-12-14T08:18:44;94289.22;;;7.93;73.62
41234;BME280;26968;42.686;23.352;2023-12-14T08:21:14;94256.97;;;7.67;73.63
41234;BME280;26968;42.686;23.352;2023-12-14T08:23:40;94208.34;;;7.44;73.04
41234;BME280;26968;42.686;23.352;2023-12-14T08:26:06;94275.56;;;7.81;72.96
41234;BME280;26968;42.686;23.352;2023-12-14T08:28:33;94263.03;;;7.67;72.88
41234;BME280;26968;42.686;23.352;2023-12-14T08:31:00;94255.19;;;7.57;72.86
41234;BME280;26968;42.686;23.352;2023-12-14T08:33:28;94208.00;;;7.51;72.86
41234;BME280;26968;42.686;23.352;2023-12-14T08:35:54;94244.34;;;7.88;73.24
41234;BME280;26968;42.686;23.352;2023-12-14T08:38:20;94042.63;;;6.70;71.83
41234;BME280;26968;42.686;23.352;2023-12-14T08:40:45;94270.47;;;8.18;71.71
41234;BME280;26968;42.686;23.352;2023-12-14T08:43:14;94294.22;;;8.47;71.05
41234;BME280;26968;42.686;23.352;2023-12-14T08:45:40;94300.69;;;8.60;70.64
41234;BME280;26968;42.686;23.352;2023-12-14T08:48:05;94303.16;;;8.75;70.38
41234;BME280;26968;42.686;23.352;2023-12-14T08:50:31;94245.75;;;8.57;70.23
41234;BME280;26968;42.686;23.352;2023-12-14T08:52:57;94321.84;;;9.02;69.73
41234;BME280;26968;42.686;23.352;2023-12-14T08:55:26;94298.47;;;8.90;68.96
41234;BME280;26968;42.686;23.352;2023-12-14T08:57:52;94290.28;;;8.92;69.36
41234;BME280;26968;42.686;23.352;2023-12-14T09:00:18;94252.50;;;8.68;68.95
41234;BME280;26968;42.686;23.352;2023-12-14T09:02:53;94265.38;;;8.93;68.05
41234;BME280;26968;42.686;23.352;2023-12-14T09:05:19;94022.22;;;7.33;68.94
41234;BME280;26968;42.686;23.352;2023-12-14T09:07:46;93888.31;;;6.64;68.75
41234;BME280;26968;42.686;23.352;2023-12-14T09:10:12;94054.09;;;7.84;68.04
41234;BME280;26968;42.686;23.352;2023-12-14T09:12:38;94202.34;;;8.81;68.40
41234;BME280;26968;42.686;23.352;2023-12-14T09:15:04;94305.63;;;9.65;67.46
41234;BME280;26968;42.686;23.352;2023-12-14T09:17:31;94290.16;;;9.72;67.50
41234;BME280;26968;42.686;23.352;2023-12-14T09:20:00;94294.09;;;9.75;67.86
41234;BME280;26968;42.686;23.352;2023-12-14T09:22:26;94291.84;;;9.68;67.21
41234;BME280;26968;42.686;23.352;2023-12-14T09:24:51;94196.16;;;9.23;66.40
41234;BME280;26968;42.686;23.352;2023-12-14T09:27:17;94258.50;;;9.67;66.20
41234;BME280;26968;42.686;23.352;2023-12-14T09:29:43;94239.81;;;9.58;66.21
41234;BME280;26968;42.686;23.352;2023-12-14T09:32:08;94311.09;;;9.87;66.59
41234;BME280;26968;42.686;23.352;2023-12-14T09:34:34;94217.56;;;9.27;65.49
41234;BME280;26968;42.686;23.352;2023-12-14T09:37:00;94317.03;;;9.98;65.48
41234;BME280;26968;42.686;23.352;2023-12-14T09:39:25;94310.84;;;10.02;65.60
41234;BME280;26968;42.686;23.352;2023-12-14T09:42:02;94244.97;;;9.68;64.85
41234;BME280;26968;42.686;23.352;2023-12-14T09:44:29;94304.31;;;10.14;64.47
41234;BME280;26968;42.686;23.352;2023-12-14T09:47:01;94219.69;;;9.76;64.72
41234;BME280;26968;42.686;23.352;2023-12-14T09:49:29;94324.03;;;10.40;64.04
41234;BME280;26968;42.686;23.352;2023-12-14T09:51:58;94325.97;;;10.34;63.56
41234;BME280;26968;42.686;23.352;2023-12-14T09:54:26;94323.63;;;10.47;64.09
41234;BME280;26968;42.686;23.352;2023-12-14T09:56:52;94330.03;;;10.59;63.54
41234;BME280;26968;42.686;23.352;2023-12-14T09:59:18;94219.47;;;9.73;63.97
41234;BME280;26968;42.686;23.352;2023-12-14T10:01:44;94234.63;;;9.99;63.17
41234;BME280;26968;42.686;23.352;2023-12-14T10:04:15;94323.56;;;10.65;63.07
41234;BME280;26968;42.686;23.352;2023-12-14T10:06:44;94273.53;;;10.18;63.00
41234;BME280;26968;42.686;23.352;2023-12-14T10:09:10;94320.91;;;10.52;62.75
41234;BME280;26968;42.686;23.352;2023-12-14T10:11:42;94298.97;;;10.32;62.92
41234;BME280;26968;42.686;23.352;2023-12-14T10:14:18;94309.69;;;10.55;63.07
41234;BME280;26968;42.686;23.352;2023-12-14T10:16:45;94273.09;;;10.11;63.07
41234;BME280;26968;42.686;23.352;2023-12-14T10:19:11;94331.97;;;10.54;62.85
41234;BME280;26968;42.686;23.352;2023-12-14T10:21:36;94198.66;;;9.66;63.12
41234;BME280;26968;42.686;23.352;2023-12-14T10:24:02;94261.81;;;10.05;63.32
41234;BME280;26968;42.686;23.352;2023-12-14T10:26:27;94165.59;;;9.50;62.93
41234;BME280;26968;42.686;23.352;2023-12-14T10:28:53;94260.19;;;10.23;62.72
41234;BME280;26968;42.686;23.352;2023-12-14T10:31:19;94281.78;;;10.30;62.56
41234;BME280;26968;42.686;23.352;2023-12-14T10:33:49;94188.59;;;9.82;62.09
41234;BME280;26968;42.686;23.352;2023-12-14T10:36:19;94345.06;;;10.64;62.31
41234;BME280;26968;42.686;23.352;2023-12-14T10:38:48;94330.13;;;10.54;63.09
41234;BME280;26968;42.686;23.352;2023-12-14T10:41:17;94350.06;;;10.65;63.35
41234;BME280;26968;42.686;23.352;2023-12-14T10:43:44;94367.44;;;10.58;63.09
41234;BME280;26968;42.686;23.352;2023-12-14T10:46:13;94347.03;;;10.58;62.63
41234;BME280;26968;42.686;23.352;2023-12-14T10:48:40;94267.31;;;10.08;62.58
41234;BME280;26968;42.686;23.352;2023-12-14T10:51:11;94261.09;;;9.99;63.17
41234;BME280;26968;42.686;23.352;2023-12-14T10:53:37;94228.44;;;9.58;67.82
41234;BME280;26968;42.686;23.352;2023-12-14T10:56:05;94382.31;;;10.26;70.80
41234;BME280;26968;42.686;23.352;2023-12-14T10:58:51;94337.75;;;9.77;72.77
41234;BME280;26968;42.686;23.352;2023-12-14T11:01:20;94323.94;;;9.61;73.63
41234;BME280;26968;42.686;23.352;2023-12-14T11:03:46;94346.31;;;9.69;74.28
41234;BME280;26968;42.686;23.352;2023-12-14T11:08:54;94371.41;;;9.58;75.89
41234;BME280;26968;42.686;23.352;2023-12-14T11:11:20;94393.00;;;9.65;76.17
41234;BME280;26968;42.686;23.352;2023-12-14T11:13:52;94397.88;;;9.58;75.67
41234;BME280;26968;42.686;23.352;2023-12-14T11:16:20;94399.72;;;9.57;75.29
41234;BME280;26968;42.686;23.352;2023-12-14T11:19:27;94403.56;;;9.46;75.78
41234;BME280;26968;42.686;23.352;2023-12-14T11:24:23;94203.97;;;8.11;75.11
41234;BME280;26968;42.686;23.352;2023-12-14T11:26:55;94309.19;;;8.57;74.20
41234;BME280;26968;42.686;23.352;2023-12-14T11:29:21;94205.34;;;7.85;74.07
41234;BME280;26968;42.686;23.352;2023-12-14T11:31:50;94208.84;;;7.75;73.59
41234;BME280;26968;42.686;23.352;2023-12-14T11:34:16;94171.25;;;7.02;73.13
41234;BME280;26968;42.686;23.352;2023-12-14T11:36:43;94238.94;;;7.74;73.12
41234;BME280;26968;42.686;23.352;2023-12-14T11:39:11;94191.47;;;7.40;73.00
41234;BME280;26968;42.686;23.352;2023-12-14T11:45:10;93833.38;;;4.77;72.25
41234;BME280;26968;42.686;23.352;2023-12-14T11:47:48;94183.44;;;6.92;72.21
41234;BME280;26968;42.686;23.352;2023-12-14T11:50:21;94151.75;;;6.58;72.06
41234;BME280;26968;42.686;23.352;2023-12-14T11:52:46;94448.44;;;8.61;72.42
41234;BME280;26968;42.686;23.352;2023-12-14T11:55:13;94147.16;;;6.35;72.47
41234;BME280;26968;42.686;23.352;2023-12-14T11:57:45;94427.53;;;8.26;72.61
41234;BME280;26968;42.686;23.352;2023-12-14T12:00:11;94405.47;;;8.11;72.52
41234;BME280;26968;42.686;23.352;2023-12-14T12:02:37;94442.59;;;8.30;72.53
41234;BME280;26968;42.686;23.352;2023-12-14T12:05:03;94293.16;;;7.22;72.12
41234;BME280;26968;42.686;23.352;2023-12-14T12:07:28;94287.16;;;7.17;72.25
41234;BME280;26968;42.686;23.352;2023-12-14T12:09:54;94481.81;;;8.47;72.62
41234;BME280;26968;42.686;23.352;2023-12-14T12:12:20;94491.94;;;8.40;72.21
41234;BME280;26968;42.686;23.352;2023-12-14T12:14:46;94147.97;;;6.26;72.79
41234;BME280;26968;42.686;23.352;2023-12-14T12:17:17;94332.88;;;7.41;72.71
41234;BME280;26968;42.686;23.352;2023-12-14T12:19:45;94117.41;;;5.70;72.50
41234;BME280;26968;42.686;23.352;2023-12-14T12:22:10;94387.63;;;7.59;73.09
41234;BME280;26968;42.686;23.352;2023-12-14T12:24:36;94378.50;;;7.47;73.39
41234;BME280;26968;42.686;23.352;2023-12-14T12:27:04;94388.47;;;7.50;73.47
41234;BME280;26968;42.686;23.352;2023-12-14T12:29:32;94150.50;;;5.92;73.22
41234;BME280;26968;42.686;23.352;2023-12-14T12:31:58;94501.34;;;8.12;73.55
41234;BME280;26968;42.686;23.352;2023-12-14T12:34:23;94151.53;;;6.01;73.90
41234;BME280;26968;42.686;23.352;2023-12-14T12:36:49;94462.38;;;7.94;73.95
41234;BME280;26968;42.686;23.352;2023-12-14T12:39:15;94464.00;;;7.90;74.04
41234;BME280;26968;42.686;23.352;2023-12-14T12:41:41;94407.41;;;7.62;74.39
41234;BME280;26968;42.686;23.352;2023-12-14T12:44:09;94486.44;;;7.92;74.09
41234;BME280;26968;42.686;23.352;2023-12-14T12:46:35;94488.53;;;7.90;74.73
41234;BME280;26968;42.686;23.352;2023-12-14T12:49:05;93889.72;;;4.10;74.59
41234;BME280;26968;42.686;23.352;2023-12-14T12:51:51;94495.09;;;7.98;74.50
41234;BME280;26968;42.686;23.352;2023-12-14T12:54:16;94374.88;;;7.27;74.33
41234;BME280;26968;42.686;23.352;2023-12-14T12:56:42;94034.53;;;4.93;74.68
41234;BME280;26968;42.686;23.352;2023-12-14T12:59:09;94136.41;;;5.42;74.80
41234;BME280;26968;42.686;23.352;2023-12-14T13:01:34;94518.59;;;7.94;75.18
41234;BME280;26968;42.686;23.352;2023-12-14T13:04:00;94193.94;;;5.94;74.96
41234;BME280;26968;42.686;23.352;2023-12-14T13:06:28;94085.22;;;5.04;75.38
41234;BME280;26968;42.686;23.352;2023-12-14T13:08:54;94487.09;;;7.69;75.38